Time;durP1;ratioP1;P1;durP2;ratioP2;P2;SDS_P1;SDS_P2;PMS_P1;PMS_P2;Temp;Humidity;BMP_temperature;BMP_pressure;BME280_temperature;BME280_humidity;BME280_pressure;Samples;Min_cycle;Max_cycle;Signal;HPM_P1;HPM_P2
2022/05/08 00:01:39;;;;;;;5.73;5.23;;;17.40;85.80;18.00;96904.00;;;;5053881;28;20195;-86
2022/05/08 00:04:06;;;;;;;5.97;5.47;;;17.50;86.00;18.10;96900.00;;;;5054046;28;20272;-87
2022/05/08 00:06:33;;;;;;;5.70;5.30;;;17.50;85.90;18.10;96914.00;;;;5054247;28;20832;-87
2022/05/08 00:09:00;;;;;;;5.07;4.67;;;17.50;85.60;18.10;96907.00;;;;5042419;28;20569;-86
2022/05/08 00:11:28;;;;;;;5.50;5.10;;;17.50;85.60;18.10;96907.00;;;;5049090;28;20611;-85
2022/05/08 00:13:56;;;;;;;5.50;5.07;;;17.50;85.60;18.10;96903.00;;;;5033819;28;20671;-87
2022/05/08 00:16:24;;;;;;;5.47;5.07;;;17.60;85.50;18.10;96904.00;;;;5043499;28;20212;-86
2022/05/08 00:18:51;;;;;;;6.10;5.63;;;17.50;85.40;18.10;96898.00;;;;5033445;28;20232;-87
2022/05/08 00:21:18;;;;;;;5.57;5.17;;;17.60;85.40;18.10;96900.00;;;;5036447;28;20197;-87
2022/05/08 00:23:45;;;;;;;5.73;5.33;;;17.60;85.20;18.10;96900.00;;;;5034411;28;20190;-86
2022/05/08 00:26:13;;;;;;;5.83;5.33;;;17.60;85.10;18.10;96899.00;;;;5050870;28;20564;-87
2022/05/08 00:28:40;;;;;;;5.67;5.17;;;17.60;85.10;18.10;96900.00;;;;5053816;28;20220;-87
2022/05/08 00:31:11;;;;;;;5.47;5.07;;;17.50;84.90;18.10;96899.00;;;;5050381;28;20203;-87
2022/05/08 00:33:39;;;;;;;5.40;5.07;;;17.60;85.10;18.10;96892.00;;;;5057309;28;20608;-87
2022/05/08 00:36:08;;;;;;;6.03;5.63;;;17.50;85.10;18.10;96897.00;;;;5052284;28;20283;-87
2022/05/08 00:38:35;;;;;;;5.37;5.07;;;17.50;85.20;18.10;96892.00;;;;5050125;28;20238;-86
2022/05/08 00:41:02;;;;;;;5.90;5.50;;;17.50;85.20;18.10;96896.00;;;;5038297;28;20201;-86
2022/05/08 00:43:33;;;;;;;7.13;6.30;;;17.60;85.20;18.10;96890.00;;;;5053328;28;20201;-87
2022/05/08 00:46:06;;;;;;;6.50;5.90;;;17.50;85.20;18.10;96889.00;;;;5041942;28;20212;-87
2022/05/08 00:48:35;;;;;;;6.00;5.60;;;17.60;85.10;18.10;96885.00;;;;5043276;28;20708;-86
2022/05/08 00:51:06;;;;;;;5.87;5.37;;;17.60;85.20;18.10;96892.00;;;;5040005;28;20201;-87
2022/05/08 00:53:36;;;;;;;6.30;5.70;;;17.60;85.30;18.10;96890.00;;;;5039534;28;20189;-86
2022/05/08 00:56:06;;;;;;;6.57;6.07;;;17.60;85.20;18.10;96890.00;;;;5052810;28;20209;-86
2022/05/08 00:58:36;;;;;;;6.27;5.80;;;17.60;85.20;18.10;96892.00;;;;5052745;28;20236;-87
2022/05/08 01:01:04;;;;;;;6.27;5.77;;;17.60;85.30;18.10;96897.00;;;;5053264;28;20192;-87
2022/05/08 01:03:32;;;;;;;6.30;5.90;;;17.60;85.30;18.10;96890.00;;;;5038785;28;20194;-86
2022/05/08 01:06:06;;;;;;;6.10;5.60;;;17.60;85.30;18.10;96894.00;;;;5052130;28;20210;-86
2022/05/08 01:08:35;;;;;;;6.20;5.70;;;17.60;85.30;18.10;96887.00;;;;5036008;28;20225;-86
2022/05/08 01:11:04;;;;;;;5.57;5.13;;;17.60;85.30;18.10;96887.00;;;;5037597;28;20858;-87
2022/05/08 01:13:31;;;;;;;6.40;5.80;;;17.60;85.30;18.10;96886.00;;;;5052578;28;20677;-86
2022/05/08 01:15:59;;;;;;;5.50;5.10;;;17.60;85.30;18.10;96887.00;;;;5052601;28;20200;-87
2022/05/08 01:18:27;;;;;;;6.23;5.83;;;17.50;85.30;18.10;96885.00;;;;5049015;28;20231;-86
2022/05/08 01:20:54;;;;;;;6.20;5.70;;;17.60;85.50;18.10;96878.00;;;;5046732;28;20260;-86
2022/05/08 01:23:23;;;;;;;6.07;5.67;;;17.60;85.60;18.10;96887.00;;;;5048416;28;20280;-87
2022/05/08 01:25:54;;;;;;;5.97;5.57;;;17.60;85.60;18.20;96882.00;;;;5039059;28;20568;-86
2022/05/08 01:28:23;;;;;;;6.20;5.70;;;17.60;85.70;18.10;96884.00;;;;5046314;28;20228;-87
2022/05/08 01:30:54;;;;;;;6.10;5.70;;;17.60;85.60;18.10;96887.00;;;;5038031;28;20204;-87
2022/05/08 01:33:23;;;;;;;6.50;5.90;;;17.60;85.50;18.10;96886.00;;;;5043913;28;20206;-86
2022/05/08 01:35:52;;;;;;;7.03;6.40;;;17.60;85.40;18.10;96885.00;;;;5032340;28;20200;-87
2022/05/08 01:38:23;;;;;;;6.57;6.07;;;17.60;85.10;18.10;96879.00;;;;5045272;28;20238;-86
2022/05/08 01:40:51;;;;;;;6.27;5.80;;;17.50;85.00;18.10;96879.00;;;;5045514;28;20189;-85
2022/05/08 01:43:18;;;;;;;6.70;6.20;;;17.60;85.00;18.10;96879.00;;;;5050336;28;20254;-87
2022/05/08 01:45:47;;;;;;;6.30;5.87;;;17.60;85.00;18.10;96884.00;;;;5033645;28;20204;-87
2022/05/08 01:48:22;;;;;;;6.33;5.83;;;17.60;85.00;18.10;96890.00;;;;5050438;28;20274;-87
2022/05/08 01:50:52;;;;;;;6.53;5.93;;;17.50;84.90;18.10;96887.00;;;;5042942;28;20207;-87
2022/05/08 01:53:20;;;;;;;5.93;5.47;;;17.50;84.90;18.10;96886.00;;;;5042553;28;20208;-86
2022/05/08 01:55:52;;;;;;;6.77;6.27;;;17.50;84.80;18.00;96885.00;;;;5048449;28;20291;-86
2022/05/08 01:58:19;;;;;;;6.63;6.13;;;17.50;84.80;18.00;96884.00;;;;5039384;28;20323;-86
2022/05/08 02:00:48;;;;;;;6.23;5.63;;;17.50;84.80;18.00;96889.00;;;;5032572;28;20821;-86
2022/05/08 02:03:16;;;;;;;5.93;5.43;;;17.50;84.80;18.00;96886.00;;;;5045488;28;20188;-86
2022/05/08 02:05:44;;;;;;;6.93;6.33;;;17.50;84.80;18.00;96885.00;;;;5036067;28;20201;-86
2022/05/08 02:08:12;;;;;;;6.30;5.80;;;17.50;84.70;18.00;96891.00;;;;5036111;28;20221;-86
2022/05/08 02:10:40;;;;;;;6.30;5.83;;;17.50;84.70;18.00;96887.00;;;;5036394;28;20580;-87
2022/05/08 02:13:09;;;;;;;6.00;5.50;;;17.40;84.80;18.00;96884.00;;;;5041271;28;20207;-86
2022/05/08 02:15:38;;;;;;;6.33;5.73;;;17.40;84.70;17.90;96895.00;;;;5046400;28;20654;-86
2022/05/08 02:18:07;;;;;;;6.23;5.73;;;17.40;84.80;17.90;96884.00;;;;5043469;28;20225;-86
2022/05/08 02:20:35;;;;;;;6.43;5.93;;;17.40;84.80;17.90;96889.00;;;;5043418;28;20193;-86
2022/05/08 02:23:02;;;;;;;6.83;6.17;;;17.40;84.80;17.90;96889.00;;;;5055558;28;20208;-86
2022/05/08 02:25:31;;;;;;;7.07;6.47;;;17.40;84.80;17.90;96887.00;;;;5055685;28;20219;-86
2022/05/08 02:27:58;;;;;;;6.70;6.20;;;17.40;85.40;17.90;96891.00;;;;5038842;28;20229;-87
2022/05/08 02:30:27;;;;;;;7.20;6.60;;;17.30;84.70;17.80;96887.00;;;;5055105;28;20658;-87
2022/05/08 02:32:54;;;;;;;6.70;6.10;;;17.30;84.70;17.80;96889.00;;;;5036085;28;20194;-86
2022/05/08 02:35:23;;;;;;;7.63;7.03;;;17.30;84.70;17.80;96890.00;;;;5050898;28;20287;-87
2022/05/08 02:37:53;;;;;;;6.73;6.20;;;17.30;84.70;17.80;96886.00;;;;5087034;22;20239;-83
2022/05/08 02:40:22;;;;;;;7.40;6.70;;;17.30;84.80;17.80;96887.00;;;;5071220;28;20279;-83
2022/05/08 02:42:49;;;;;;;7.77;7.07;;;17.30;84.90;17.70;96891.00;;;;5072636;28;20206;-83
2022/05/08 02:45:16;;;;;;;7.33;6.73;;;17.30;84.90;17.70;96887.00;;;;5071733;28;20222;-84
2022/05/08 02:47:45;;;;;;;7.43;6.83;;;17.30;84.90;17.70;96887.00;;;;5069936;28;20219;-83
2022/05/08 02:50:12;;;;;;;7.70;7.00;;;17.30;85.00;17.70;96887.00;;;;5058732;28;20200;-83
2022/05/08 02:52:41;;;;;;;8.00;7.30;;;17.20;85.10;17.70;96881.00;;;;5064418;28;20217;-81
2022/05/08 03:00:42;;;;;;;7.50;6.90;;;17.20;85.30;17.70;96892.00;;;;5056909;28;20249;-82
2022/05/08 03:03:12;;;;;;;7.77;7.07;;;17.20;85.40;17.70;96887.00;;;;5061283;28;20693;-82
2022/05/08 03:05:43;;;;;;;8.50;7.77;;;17.20;85.50;17.70;96885.00;;;;5059127;28;20206;-83
2022/05/08 03:08:11;;;;;;;8.00;7.30;;;17.30;85.60;17.70;96884.00;;;;5051869;28;20680;-82
2022/05/08 03:13:19;;;;;;;10.63;7.53;;;17.20;85.70;17.70;96885.00;;;;5006934;28;20209;-82
2022/05/08 03:15:47;;;;;;;8.20;7.40;;;17.20;85.80;17.70;96878.00;;;;5061655;28;20214;-82
2022/05/08 03:18:15;;;;;;;8.67;7.93;;;17.20;85.70;17.70;96878.00;;;;5071103;28;20227;-82
2022/05/08 03:20:42;;;;;;;8.10;7.40;;;17.20;85.60;17.60;96876.00;;;;5044961;28;20201;-82
2022/05/08 03:23:09;;;;;;;7.97;7.17;;;17.20;85.70;17.60;96876.00;;;;5046403;28;20205;-82
2022/05/08 03:25:37;;;;;;;9.10;8.30;;;17.20;85.70;17.60;96889.00;;;;5055013;28;20228;-83
2022/05/08 03:28:04;;;;;;;7.70;7.07;;;17.20;85.60;17.60;96882.00;;;;5064705;28;20350;-82
2022/05/08 03:30:31;;;;;;;9.60;8.70;;;17.20;85.50;17.60;96885.00;;;;5039628;28;20193;-81
2022/05/08 03:32:59;;;;;;;8.20;7.50;;;17.20;85.50;17.60;96887.00;;;;5058518;28;20212;-82
2022/05/08 03:35:27;;;;;;;8.30;7.50;;;17.20;85.40;17.60;96890.00;;;;5051825;28;20205;-82
2022/05/08 03:37:54;;;;;;;7.97;7.33;;;17.20;85.40;17.60;96886.00;;;;5065558;28;20225;-82
2022/05/08 03:40:22;;;;;;;8.07;7.47;;;17.20;85.50;17.60;96889.00;;;;5041442;28;20658;-82
2022/05/08 03:42:49;;;;;;;8.63;7.93;;;17.20;85.50;17.60;96885.00;;;;5055801;28;20211;-82
2022/05/08 03:45:17;;;;;;;8.60;7.70;;;17.20;85.60;17.60;96889.00;;;;5056315;28;20207;-82
2022/05/08 03:47:44;;;;;;;8.33;7.63;;;17.20;85.70;17.70;96890.00;;;;5048854;28;20226;-83
2022/05/08 03:50:12;;;;;;;8.60;7.80;;;17.20;85.70;17.70;96893.00;;;;5032197;28;20204;-82
2022/05/08 03:52:40;;;;;;;8.30;7.57;;;17.20;85.70;17.70;96889.00;;;;5052029;28;20579;-82
2022/05/08 03:55:08;;;;;;;9.17;8.37;;;17.20;85.70;17.70;96896.00;;;;5047604;28;20197;-82
2022/05/08 03:57:35;;;;;;;9.10;8.30;;;17.20;85.70;17.70;96892.00;;;;5047154;28;20590;-82
2022/05/08 04:00:02;;;;;;;9.30;8.40;;;17.20;85.80;17.70;96888.00;;;;5041002;28;20217;-82
2022/05/08 04:02:29;;;;;;;8.90;8.10;;;17.20;85.80;17.70;96898.00;;;;5065348;28;20300;-82
2022/05/08 04:04:56;;;;;;;9.07;8.27;;;17.20;85.80;17.80;96897.00;;;;5044237;28;20199;-82
2022/05/08 04:07:23;;;;;;;8.73;8.03;;;17.20;85.90;17.80;96897.00;;;;5057076;28;20223;-82
2022/05/08 04:09:51;;;;;;;9.03;8.13;;;17.20;85.90;17.80;96897.00;;;;5047622;28;20199;-82
2022/05/08 04:12:19;;;;;;;8.17;7.47;;;17.20;85.90;17.80;96897.00;;;;5049206;28;20212;-82
2022/05/08 04:14:46;;;;;;;9.37;8.50;;;17.30;86.00;17.80;96890.00;;;;5039952;28;20201;-82
2022/05/08 04:17:12;;;;;;;10.50;8.47;;;17.30;86.00;17.90;96893.00;;;;5044414;28;20225;-82
2022/05/08 04:19:39;;;;;;;9.47;8.67;;;17.30;86.20;17.90;96893.00;;;;5060487;28;20273;-83
2022/05/08 04:25:04;;;;;;;8.77;8.07;;;17.30;85.80;17.90;96894.00;;;;4992118;28;20226;-81
2022/05/08 04:27:31;;;;;;;9.07;8.27;;;17.30;85.70;17.90;96903.00;;;;5054991;28;20276;-82
2022/05/08 04:29:58;;;;;;;9.80;8.90;;;17.30;85.70;17.90;96902.00;;;;5073266;28;20287;-82
2022/05/08 04:32:25;;;;;;;8.97;8.17;;;17.40;85.80;17.90;96904.00;;;;5055012;28;20199;-82
2022/05/08 04:34:52;;;;;;;9.53;8.73;;;17.40;85.90;18.00;96908.00;;;;5057000;28;20197;-82
2022/05/08 04:37:19;;;;;;;9.80;8.90;;;17.40;86.00;18.00;96910.00;;;;5059872;28;20243;-82
2022/05/08 04:39:46;;;;;;;10.43;9.43;;;17.40;86.00;18.00;96901.00;;;;5046400;28;20212;-82
2022/05/08 04:42:14;;;;;;;10.47;9.47;;;17.40;85.90;18.00;96906.00;;;;5053976;28;20192;-82
2022/05/08 04:44:41;;;;;;;9.93;9.03;;;17.40;86.10;18.10;96905.00;;;;5052425;28;20574;-82
2022/05/08 04:47:08;;;;;;;9.80;9.00;;;17.50;86.20;18.10;96916.00;;;;5057539;28;20312;-82
2022/05/08 04:49:35;;;;;;;9.77;8.90;;;17.50;86.10;18.10;96905.00;;;;5059473;28;20201;-82
2022/05/08 04:52:02;;;;;;;9.80;8.80;;;17.50;86.00;18.10;96910.00;;;;5043096;28;20204;-82
2022/05/08 04:54:29;;;;;;;10.00;9.10;;;17.50;86.00;18.20;96917.00;;;;5047505;28;20201;-82
2022/05/08 04:56:56;;;;;;;10.60;9.50;;;17.60;86.00;18.20;96921.00;;;;5044109;28;20228;-82
2022/05/08 04:59:25;;;;;;;10.73;9.77;;;17.60;86.10;18.20;96913.00;;;;5056895;28;20248;-82
2022/05/08 05:01:52;;;;;;;10.77;9.77;;;17.60;86.00;18.20;96919.00;;;;5057081;28;20202;-82
2022/05/08 05:04:19;;;;;;;10.47;9.57;;;17.60;86.00;18.30;96919.00;;;;5054869;28;20200;-82
2022/05/08 05:06:46;;;;;;;10.57;9.57;;;17.70;86.10;18.30;96922.00;;;;5049433;28;20196;-82
2022/05/08 05:09:13;;;;;;;10.70;9.73;;;17.70;86.10;18.30;96924.00;;;;5049558;28;20200;-82
2022/05/08 05:11:40;;;;;;;10.13;9.17;;;17.70;86.10;18.40;96932.00;;;;5053183;28;20222;-82
2022/05/08 05:14:08;;;;;;;9.00;8.30;;;17.70;86.00;18.40;96928.00;;;;5048930;28;20897;-82
2022/05/08 05:16:36;;;;;;;10.30;9.40;;;17.80;86.00;18.40;96925.00;;;;5046493;28;20189;-82
2022/05/08 05:19:04;;;;;;;10.23;9.33;;;17.80;86.10;18.50;96931.00;;;;5051060;28;20690;-83
2022/05/08 05:21:31;;;;;;;10.90;9.83;;;17.90;86.20;18.50;96921.00;;;;5056900;28;20192;-82
2022/05/08 05:23:58;;;;;;;10.40;9.40;;;17.90;86.20;18.60;96931.00;;;;5044217;28;20189;-82
2022/05/08 05:26:25;;;;;;;10.40;9.50;;;17.90;86.20;18.60;96935.00;;;;5048702;28;20199;-82
2022/05/08 05:28:52;;;;;;;10.93;9.83;;;17.90;86.40;18.70;96937.00;;;;5040007;28;20738;-82
2022/05/08 05:31:20;;;;;;;10.60;9.63;;;18.00;86.50;18.70;96936.00;;;;5052107;28;20200;-82
2022/05/08 05:33:48;;;;;;;9.80;9.00;;;18.00;86.50;18.80;96947.00;;;;5032610;28;20197;-82
2022/05/08 05:36:15;;;;;;;10.30;9.40;;;18.10;86.60;18.90;96942.00;;;;5029958;28;20555;-82
2022/05/08 05:38:42;;;;;;;10.20;9.30;;;18.10;86.50;18.90;96946.00;;;;5035202;28;20573;-82
2022/05/08 05:41:09;;;;;;;10.00;9.13;;;18.20;86.40;19.00;96949.00;;;;5061551;28;20665;-82
2022/05/08 05:43:36;;;;;;;11.10;10.10;;;18.20;86.30;19.00;96946.00;;;;5034341;28;20201;-82
2022/05/08 05:48:49;;;;;;;10.33;9.40;;;18.40;86.40;19.20;96950.00;;;;5050262;28;20231;-82
2022/05/08 05:51:16;;;;;;;9.70;8.90;;;18.40;86.30;19.30;96948.00;;;;5070915;28;20188;-82
2022/05/08 05:53:43;;;;;;;10.27;9.37;;;18.50;86.30;19.30;96959.00;;;;5052857;28;20189;-82
2022/05/08 05:56:10;;;;;;;10.80;9.80;;;18.50;86.20;19.40;96961.00;;;;5033287;28;20228;-82
2022/05/08 05:58:37;;;;;;;10.13;9.23;;;18.60;86.10;19.40;96956.00;;;;5030625;28;20220;-83
2022/05/08 06:01:04;;;;;;;11.07;10.07;;;18.70;85.90;19.50;96963.00;;;;5043899;28;20207;-82
2022/05/08 06:03:33;;;;;;;10.10;9.20;;;18.70;85.70;19.50;96959.00;;;;5050638;28;20215;-80
2022/05/08 06:06:01;;;;;;;10.13;9.33;;;18.70;85.50;19.60;96959.00;;;;5068878;28;20585;-80
2022/05/08 06:08:28;;;;;;;10.47;9.53;;;18.80;85.50;19.60;96965.00;;;;5052540;28;20216;-79
2022/05/08 06:10:55;;;;;;;9.83;8.93;;;18.80;85.40;19.70;96968.00;;;;5049857;28;20192;-79
2022/05/08 06:13:22;;;;;;;10.17;9.27;;;18.90;85.40;19.80;96974.00;;;;5063955;28;20203;-80
2022/05/08 06:15:49;;;;;;;10.47;9.57;;;18.90;85.40;19.80;96973.00;;;;5055963;28;20231;-80
2022/05/08 06:18:16;;;;;;;9.90;9.10;;;19.00;85.30;19.90;96982.00;;;;5054319;28;20240;-80
2022/05/08 06:20:43;;;;;;;10.67;9.70;;;19.00;85.30;20.00;96985.00;;;;5045278;28;20217;-81
2022/05/08 06:23:11;;;;;;;11.03;10.13;;;19.10;85.30;20.00;96981.00;;;;5059583;28;20200;-80
2022/05/08 06:25:41;;;;;;;10.60;9.60;;;19.10;85.20;20.10;96989.00;;;;5053108;28;20199;-81
2022/05/08 06:28:09;;;;;;;10.93;9.87;;;19.20;85.10;20.20;96980.00;;;;5048488;28;20213;-81
2022/05/08 06:30:36;;;;;;;11.50;10.50;;;19.20;85.00;20.30;96982.00;;;;5055740;28;20204;-81
2022/05/08 06:33:03;;;;;;;10.63;9.63;;;19.30;85.20;20.40;96980.00;;;;5056911;28;20190;-80
2022/05/08 06:35:30;;;;;;;10.30;9.50;;;19.40;85.30;20.40;96975.00;;;;5051138;28;20194;-81
2022/05/08 06:37:57;;;;;;;10.07;9.17;;;19.40;85.40;20.50;96984.00;;;;5061307;28;20709;-79
2022/05/08 06:40:26;;;;;;;9.97;9.13;;;19.50;85.10;20.60;96978.00;;;;5055567;28;20225;-79
2022/05/08 06:42:53;;;;;;;9.23;8.43;;;19.60;84.50;20.70;96978.00;;;;5059314;28;20196;-79
2022/05/08 06:45:24;;;;;;;10.20;9.30;;;19.60;84.40;20.70;96985.00;;;;5052279;28;20198;-80
2022/05/08 06:47:51;;;;;;;9.50;8.63;;;19.70;84.30;20.80;96982.00;;;;5056466;28;20255;-79
2022/05/08 06:50:18;;;;;;;10.70;9.70;;;19.80;84.10;20.80;96989.00;;;;5053375;28;20197;-80
2022/05/08 06:52:46;;;;;;;9.97;9.10;;;19.80;83.90;20.90;96981.00;;;;5071568;28;20274;-79
2022/05/08 06:55:13;;;;;;;9.63;8.73;;;19.80;83.90;20.90;96990.00;;;;5067605;28;20197;-80
2022/05/08 06:57:42;;;;;;;9.23;8.53;;;19.90;83.80;20.90;96991.00;;;;5040944;28;20221;-78
2022/05/08 07:02:54;;;;;;;9.03;8.23;;;20.00;82.70;20.90;96992.00;;;;5050618;28;20200;-80
2022/05/08 07:05:21;;;;;;;8.53;7.83;;;20.00;82.40;20.90;96997.00;;;;5070874;28;20551;-79
2022/05/08 07:07:48;;;;;;;8.67;7.97;;;20.00;82.30;20.90;96998.00;;;;5057555;28;20594;-80
2022/05/08 07:10:15;;;;;;;8.93;8.23;;;20.00;82.00;20.80;97009.00;;;;5054375;28;20215;-79
2022/05/08 07:12:44;;;;;;;8.50;7.80;;;20.00;81.80;20.80;97003.00;;;;5051699;28;20204;-79
2022/05/08 07:15:11;;;;;;;8.17;7.37;;;20.00;81.80;20.80;97002.00;;;;5063808;28;20192;-79
2022/05/08 07:17:39;;;;;;;8.27;7.60;;;20.00;81.70;20.80;97007.00;;;;5056888;28;20235;-79
2022/05/08 07:20:08;;;;;;;7.53;6.97;;;20.00;81.90;20.70;97005.00;;;;5057613;28;20228;-80
2022/05/08 07:22:36;;;;;;;7.50;6.90;;;19.90;81.60;20.70;97005.00;;;;5064549;28;20282;-80
2022/05/08 07:25:04;;;;;;;7.50;6.87;;;19.90;81.60;20.60;97006.00;;;;5046279;28;20201;-79
2022/05/08 07:27:32;;;;;;;6.63;6.10;;;19.90;81.70;20.60;97007.00;;;;5048859;28;20227;-79
2022/05/08 07:30:00;;;;;;;6.57;6.07;;;19.90;81.40;20.60;97010.00;;;;5054326;28;20208;-79
2022/05/08 07:32:27;;;;;;;7.03;6.47;;;19.80;81.10;20.50;97009.00;;;;5055881;28;20199;-79
2022/05/08 07:37:39;;;;;;;6.40;5.90;;;19.80;81.30;20.50;97017.00;;;;5054195;28;20268;-79
2022/05/08 07:40:08;;;;;;;6.33;5.83;;;19.70;81.40;20.40;97017.00;;;;5052188;28;20248;-79
2022/05/08 07:42:35;;;;;;;6.47;5.97;;;19.70;81.30;20.40;97014.00;;;;5059074;28;20204;-79
2022/05/08 07:45:04;;;;;;;6.67;6.17;;;19.60;81.40;20.30;97017.00;;;;5050520;28;20200;-80
2022/05/08 07:47:31;;;;;;;6.50;6.00;;;19.60;81.40;20.30;97016.00;;;;5055995;28;20231;-84
2022/05/08 07:49:58;;;;;;;6.30;5.90;;;19.60;81.40;20.30;97023.00;;;;5052844;28;20202;-79
2022/05/08 07:52:25;;;;;;;6.40;5.87;;;19.50;81.40;20.30;97021.00;;;;5043627;28;20211;-79
2022/05/08 07:54:52;;;;;;;5.67;5.30;;;19.60;81.60;20.30;97027.00;;;;5044786;28;20197;-80
2022/05/08 07:57:19;;;;;;;6.33;5.83;;;19.50;81.70;20.30;97026.00;;;;5047360;28;20225;-81
2022/05/08 07:59:47;;;;;;;5.90;5.53;;;19.50;81.80;20.30;97022.00;;;;5044626;28;20219;-84
2022/05/08 08:02:16;;;;;;;6.07;5.37;;;19.50;82.00;20.30;97025.00;;;;5044469;28;20193;-79
2022/05/08 08:04:43;;;;;;;6.23;5.73;;;19.50;82.00;20.30;97027.00;;;;5041356;28;20200;-80
2022/05/08 08:07:10;;;;;;;6.10;5.67;;;19.50;82.40;20.40;97035.00;;;;5043261;28;20217;-79
2022/05/08 08:09:37;;;;;;;5.33;4.93;;;19.50;82.50;20.40;97030.00;;;;5047633;28;20209;-80
2022/05/08 08:12:05;;;;;;;5.57;5.20;;;19.50;83.30;20.50;97040.00;;;;5069859;28;20657;-79
2022/05/08 08:14:32;;;;;;;5.90;5.50;;;19.50;82.80;20.50;97036.00;;;;5052815;28;20688;-79
2022/05/08 08:16:59;;;;;;;6.53;6.03;;;19.60;83.00;20.60;97037.00;;;;5050124;28;20226;-80
2022/05/08 08:19:29;;;;;;;5.93;5.47;;;19.70;83.50;20.80;97036.00;;;;5048308;28;22047;-79
2022/05/08 08:21:56;;;;;;;6.03;5.63;;;19.70;83.60;20.90;97047.00;;;;5057640;28;20218;-78
2022/05/08 08:24:23;;;;;;;6.30;5.80;;;19.80;83.90;21.00;97043.00;;;;5045518;28;20667;-80
2022/05/08 08:26:51;;;;;;;6.60;6.03;;;19.90;83.80;21.20;97045.00;;;;5035559;28;20299;-79
2022/05/08 08:29:18;;;;;;;6.00;5.57;;;20.00;83.80;21.30;97050.00;;;;5042952;28;20198;-80
2022/05/08 08:31:45;;;;;;;6.03;5.53;;;20.10;83.90;21.50;97035.00;;;;5066412;28;20206;-78
2022/05/08 08:34:12;;;;;;;6.33;5.83;;;20.20;83.80;21.60;97043.00;;;;5057631;28;20564;-79
2022/05/08 08:36:40;;;;;;;6.27;5.77;;;20.40;83.70;21.80;97041.00;;;;5054953;28;20227;-80
2022/05/08 08:39:07;;;;;;;5.73;5.33;;;20.50;83.30;22.00;97051.00;;;;5048117;28;20224;-79
2022/05/08 08:41:36;;;;;;;6.80;6.30;;;20.60;83.10;22.20;97043.00;;;;5059671;28;20212;-79
2022/05/08 08:49:48;;;;;;;6.80;6.30;;;21.10;82.70;22.70;97054.00;;;;5040698;28;20816;-78
2022/05/08 08:52:17;;;;;;;6.87;6.37;;;21.20;83.10;22.80;97054.00;;;;5050058;28;20199;-79
2022/05/08 08:54:45;;;;;;;6.17;5.77;;;21.40;82.20;22.80;97052.00;;;;5048744;28;20204;-78
2022/05/08 08:57:13;;;;;;;6.17;5.77;;;21.40;81.80;22.90;97050.00;;;;5065065;28;20768;-79
2022/05/08 08:59:40;;;;;;;6.43;5.93;;;21.50;80.90;23.00;97058.00;;;;5045577;28;20225;-78
2022/05/08 09:02:16;;;;;;;5.97;5.47;;;21.60;80.80;23.00;97057.00;;;;5052325;28;20198;-79
2022/05/08 09:04:45;;;;;;;7.23;5.57;;;21.70;79.50;23.10;97058.00;;;;5051803;28;20194;-78
2022/05/08 09:07:39;;;;;;;5.30;5.00;;;21.80;79.80;23.20;97059.00;;;;5040261;28;20577;-79
2022/05/08 09:10:12;;;;;;;5.40;5.00;;;21.90;78.80;23.30;97057.00;;;;5048662;28;20204;-79
2022/05/08 09:12:42;;;;;;;5.70;5.30;;;22.00;79.10;23.30;97064.00;;;;5050293;28;20207;-78
2022/05/08 09:15:24;;;;;;;5.60;5.20;;;22.00;79.10;23.30;97063.00;;;;5040255;28;20201;-79
2022/05/08 09:17:55;;;;;;;5.83;5.43;;;22.10;78.00;23.20;97060.00;;;;5055347;28;20211;-79
2022/05/08 09:20:30;;;;;;;5.50;5.13;;;22.10;78.40;23.10;97058.00;;;;5071604;28;20242;-79
2022/05/08 09:23:06;;;;;;;5.63;5.30;;;22.10;77.60;23.00;97064.00;;;;5049995;28;20195;-78
2022/05/08 09:25:55;;;;;;;5.53;5.13;;;22.10;77.30;23.00;97067.00;;;;5057202;28;20220;-79
2022/05/08 09:28:27;;;;;;;6.10;5.60;;;22.10;75.80;23.00;97070.00;;;;5069136;28;20708;-79
2022/05/08 09:31:00;;;;;;;5.80;5.40;;;22.00;77.10;23.00;97065.00;;;;5046964;28;20608;-78
2022/05/08 09:33:30;;;;;;;6.33;5.83;;;22.00;77.30;23.10;97066.00;;;;5056318;28;20192;-78
2022/05/08 09:35:58;;;;;;;6.73;6.17;;;22.10;77.90;23.20;97064.00;;;;5062709;28;20196;-78
2022/05/08 09:38:49;;;;;;;6.70;6.17;;;22.10;78.30;23.40;97060.00;;;;5058224;28;20221;-78
2022/05/08 09:41:19;;;;;;;6.13;5.67;;;22.20;75.70;23.50;97068.00;;;;5059362;28;20212;-79
2022/05/08 09:43:47;;;;;;;6.40;5.90;;;22.30;77.60;23.60;97064.00;;;;5051869;28;20327;-79
2022/05/08 09:46:14;;;;;;;6.50;6.00;;;22.40;77.60;23.70;97062.00;;;;5049888;28;20304;-79
2022/05/08 09:48:41;;;;;;;6.00;5.50;;;22.50;76.80;23.80;97062.00;;;;5050128;28;20236;-78
2022/05/08 09:51:10;;;;;;;6.00;5.57;;;22.50;77.10;23.90;97060.00;;;;5061783;28;20206;-78
2022/05/08 09:53:41;;;;;;;5.70;5.30;;;22.60;77.00;24.00;97060.00;;;;5059149;28;20194;-79
2022/05/08 09:56:10;;;;;;;5.77;5.30;;;22.70;76.40;24.10;97062.00;;;;5038665;28;20674;-79
2022/05/08 09:58:38;;;;;;;6.17;5.77;;;22.80;76.30;24.20;97062.00;;;;5059317;28;20208;-79
2022/05/08 10:01:05;;;;;;;6.17;5.73;;;22.90;75.80;24.20;97060.00;;;;5053661;28;20531;-78
2022/05/08 10:03:34;;;;;;;6.00;5.50;;;23.00;75.10;24.10;97060.00;;;;5060424;28;20235;-80
2022/05/08 10:06:01;;;;;;;6.63;6.13;;;23.00;74.60;24.00;97059.00;;;;5050632;28;20196;-79
2022/05/08 10:08:33;;;;;;;6.33;5.83;;;23.00;74.80;24.00;97058.00;;;;5055519;28;20928;-79
2022/05/08 10:13:57;;;;;;;4.90;4.60;;;23.00;74.70;24.20;97059.00;;;;5046060;28;21384;-79
2022/05/08 10:16:48;;;;;;;4.47;4.17;;;23.00;74.50;24.20;97060.00;;;;5053900;28;20202;-79
2022/05/08 10:19:45;;;;;;;5.03;4.63;;;23.10;72.60;24.10;97064.00;;;;5065210;28;20205;-80
2022/05/08 10:22:14;;;;;;;5.17;4.67;;;23.00;72.60;24.10;97062.00;;;;5055075;28;20202;-79
2022/05/08 10:24:51;;;;;;;4.77;4.37;;;23.00;73.80;24.00;97065.00;;;;5047971;28;20251;-79
2022/05/08 10:27:22;;;;;;;4.77;4.47;;;22.90;73.20;23.90;97065.00;;;;5053452;28;20217;-79
2022/05/08 10:30:32;;;;;;;5.70;4.23;;;22.90;73.00;23.70;97060.00;;;;5053932;28;20204;-79
2022/05/08 10:33:00;;;;;;;4.50;4.13;;;22.80;72.30;23.60;97060.00;;;;5061634;28;20207;-79
2022/05/08 10:35:30;;;;;;;4.50;4.20;;;22.70;73.00;23.60;97060.00;;;;5065411;28;20250;-79
2022/05/08 10:38:22;;;;;;;4.70;4.30;;;22.60;73.00;23.50;97066.00;;;;5065468;28;20230;-80
2022/05/08 10:40:50;;;;;;;4.30;4.00;;;22.60;71.70;23.50;97059.00;;;;5046714;28;20311;-79
2022/05/08 10:43:32;;;;;;;4.80;4.40;;;22.50;73.30;23.40;97067.00;;;;5045152;28;20557;-80
2022/05/08 10:46:23;;;;;;;4.67;4.37;;;22.40;72.40;23.40;97068.00;;;;5062156;28;20193;-80
2022/05/08 10:48:51;;;;;;;4.70;4.10;;;22.40;72.70;23.40;97075.00;;;;5039096;28;20224;-80
2022/05/08 10:51:18;;;;;;;4.80;4.50;;;22.40;73.80;23.40;97074.00;;;;5038070;28;20276;-80
2022/05/08 10:53:46;;;;;;;4.90;4.50;;;22.30;73.80;23.40;97074.00;;;;5049213;28;20204;-80
2022/05/08 10:56:14;;;;;;;4.63;4.33;;;22.30;73.90;23.50;97074.00;;;;5065408;28;20209;-80
2022/05/08 10:58:53;;;;;;;5.10;4.70;;;22.30;74.20;23.50;97073.00;;;;5066560;28;20212;-80
2022/05/08 11:01:20;;;;;;;4.30;4.00;;;22.30;73.40;23.50;97073.00;;;;5079564;28;20211;-80
2022/05/08 11:03:47;;;;;;;4.67;4.37;;;22.30;74.30;23.50;97072.00;;;;5064474;28;20196;-81
2022/05/08 11:06:22;;;;;;;4.90;4.60;;;22.40;74.10;23.60;97062.00;;;;5048347;28;20198;-80
2022/05/08 11:08:49;;;;;;;4.57;4.27;;;22.40;74.00;23.60;97063.00;;;;5073960;28;20216;-79
2022/05/08 11:11:18;;;;;;;4.67;4.37;;;22.40;74.10;23.60;97069.00;;;;5059482;28;20593;-80
2022/05/08 11:13:49;;;;;;;4.17;3.97;;;22.40;74.10;23.70;97064.00;;;;5045169;28;20198;-80
2022/05/08 11:16:36;;;;;;;4.20;3.90;;;22.50;73.80;23.70;97066.00;;;;5053273;28;20289;-80
2022/05/08 11:19:05;;;;;;;4.40;4.10;;;22.50;72.70;23.70;97064.00;;;;5060426;28;20212;-79
2022/05/08 11:21:32;;;;;;;4.50;4.20;;;22.50;73.80;23.70;97056.00;;;;5046712;28;20760;-79
2022/05/08 11:24:00;;;;;;;4.73;4.43;;;22.50;73.50;23.70;97061.00;;;;5062027;28;20194;-79
2022/05/08 11:26:32;;;;;;;4.50;4.20;;;22.60;73.40;23.70;97062.00;;;;5037518;28;20201;-79
2022/05/08 11:29:01;;;;;;;4.33;4.03;;;22.60;72.70;23.70;97067.00;;;;5044553;28;20221;-79